Time,TemperatureF,DewpointF,PressureIn,WindDirection,WindDirectionDegrees,WindSpeedMPH,WindSpeedGustMPH,Humidity,HourlyPrecipIn,Conditions,Clouds,dailyrainin,SoftwareType,DateUTC
2013-08-23 00:01:00,72.5,71.0,29.88,North,0,0.0,0.0,95,0.00,,,0.00,WUHU21623XXSP,2013-08-23 04:01:00,
2013-08-23 00:06:00,72.1,71.2,29.88,SSW,202,0.3,2.9,97,0.00,,,0.00,WUHU21623XXSP,2013-08-23 04:06:00,
2013-08-23 00:11:00,72.1,71.2,29.88,North,0,0.0,2.9,97,0.00,,,0.00,WUHU21623XXSP,2013-08-23 04:11:00,
2013-08-23 00:16:00,72.0,71.1,29.88,North,0,0.0,1.1,97,0.00,,,0.00,WUHU21623XXSP,2013-08-23 04:16:00,
2013-08-23 00:21:00,72.0,71.1,29.88,West,259,0.5,2.9,97,0.00,,,0.00,WUHU21623XXSP,2013-08-23 04:21:00,
2013-08-23 00:26:00,71.8,70.9,29.88,North,349,0.3,2.9,97,0.00,,,0.00,WUHU21623XXSP,2013-08-23 04:26:00,
2013-08-23 00:31:00,72.0,71.1,29.88,North,4,0.4,1.6,97,0.00,,,0.00,WUHU21623XXSP,2013-08-23 04:31:00,
2013-08-23 00:36:00,71.8,70.9,29.88,South,180,0.3,1.8,97,0.00,,,0.00,WUHU21623XXSP,2013-08-23 04:36:00,
2013-08-23 00:41:00,71.8,71.2,29.88,NNE,22,0.1,2.2,98,0.00,,,0.00,WUHU21623XXSP,2013-08-23 04:41:00,
2013-08-23 00:46:00,71.8,71.2,29.88,NW,315,0.0,2.2,98,0.00,,,0.00,WUHU21623XXSP,2013-08-23 04:46:00,
2013-08-23 00:51:00,72.1,71.9,29.88,North,4,1.0,3.1,99,0.00,,,0.00,WUHU21623XXSP,2013-08-23 04:51:00,
2013-08-23 00:56:00,73.0,72.4,29.88,NNE,22,0.2,3.1,98,0.00,,,0.00,WUHU21623XXSP,2013-08-23 04:56:00,
2013-08-23 01:01:00,73.6,73.0,29.88,NNE,22,0.0,2.0,98,0.00,,,0.00,WUHU21623XXSP,2013-08-23 05:01:00,
2013-08-23 01:06:00,73.2,72.0,29.88,NE,45,0.0,2.5,96,0.00,,,0.00,WUHU21623XXSP,2013-08-23 05:06:00,
2013-08-23 01:11:00,72.9,71.4,29.88,NNW,337,1.1,2.5,95,0.00,,,0.00,WUHU21623XXSP,2013-08-23 05:11:00,
2013-08-23 01:16:00,72.5,71.0,29.88,North,11,0.2,2.7,95,0.00,,,0.00,WUHU21623XXSP,2013-08-23 05:16:00,
2013-08-23 01:21:00,72.3,71.1,29.88,North,0,0.0,2.7,96,0.00,,,0.00,WUHU21623XXSP,2013-08-23 05:21:00,
2013-08-23 01:26:00,72.1,70.9,29.88,ESE,112,0.3,2.7,96,0.00,,,0.00,WUHU21623XXSP,2013-08-23 05:26:00,
2013-08-23 01:31:00,72.0,70.8,29.88,North,0,0.1,2.7,96,0.00,,,0.00,WUHU21623XXSP,2013-08-23 05:31:00,
2013-08-23 01:36:00,72.0,70.8,29.88,NNE,27,0.6,3.1,96,0.00,,,0.00,WUHU21623XXSP,2013-08-23 05:36:00,
2013-08-23 01:41:00,72.0,71.1,29.88,NNE,22,0.0,5.4,97,0.00,,,0.00,WUHU21623XXSP,2013-08-23 05:41:00,
2013-08-23 01:46:00,71.8,70.9,29.88,North,0,0.6,5.4,97,0.00,,,0.00,WUHU21623XXSP,2013-08-23 05:46:00,
2013-08-23 01:51:00,71.8,70.9,29.88,North,0,0.0,1.6,97,0.00,,,0.00,WUHU21623XXSP,2013-08-23 05:51:00,
2013-08-23 01:56:00,71.8,70.9,29.88,North,0,0.0,0.0,97,0.00,,,0.00,WUHU21623XXSP,2013-08-23 05:56:00,
2013-08-23 02:01:00,72.9,72.0,29.88,North,0,0.0,0.0,97,0.00,,,0.00,WUHU21623XXSP,2013-08-23 06:01:00,
2013-08-23 02:06:00,73.6,72.7,29.88,North,0,0.0,0.0,97,0.00,,,0.00,WUHU21623XXSP,2013-08-23 06:06:00,
2013-08-23 02:11:00,73.4,72.2,29.88,North,0,0.0,0.0,96,0.00,,,0.00,WUHU21623XXSP,2013-08-23 06:11:00,
2013-08-23 02:16:00,72.9,71.4,29.88,North,0,0.0,0.0,95,0.00,,,0.00,WUHU21623XXSP,2013-08-23 06:16:00,
2013-08-23 02:21:00,72.7,71.2,29.88,North,0,0.0,0.0,95,0.00,,,0.00,WUHU21623XXSP,2013-08-23 06:21:00,
2013-08-23 02:26:00,72.3,71.1,29.88,NW,315,0.2,1.6,96,0.00,,,0.00,WUHU21623XXSP,2013-08-23 06:26:00,
2013-08-23 02:31:00,72.1,70.9,29.88,West,270,0.0,1.6,96,0.00,,,0.00,WUHU21623XXSP,2013-08-23 06:31:00,
2013-08-23 02:36:00,72.0,70.8,29.88,NE,45,0.0,0.0,96,0.00,,,0.00,WUHU21623XXSP,2013-08-23 06:36:00,
2013-08-23 02:41:00,71.8,70.6,29.88,NE,45,0.0,0.0,96,0.00,,,0.00,WUHU21623XXSP,2013-08-23 06:41:00,
2013-08-23 02:46:00,71.8,70.6,29.88,NE,45,0.0,0.0,96,0.00,,,0.00,WUHU21623XXSP,2013-08-23 06:46:00,
2013-08-23 02:51:00,71.8,70.6,29.88,NNE,22,0.0,0.0,96,0.00,,,0.00,WUHU21623XXSP,2013-08-23 06:51:00,
2013-08-23 02:56:00,71.6,70.4,29.88,NNE,22,0.0,0.0,96,0.00,,,0.00,WUHU21623XXSP,2013-08-23 06:56:00,
2013-08-23 03:01:00,71.4,70.2,29.88,NNE,22,0.0,4.0,96,0.00,,,0.00,WUHU21623XXSP,2013-08-23 07:01:00,
2013-08-23 03:07:00,71.4,70.5,29.88,North,0,0.0,4.0,97,0.00,,,0.00,WUHU21623XXSP,2013-08-23 07:07:00,
2013-08-23 03:12:00,71.4,70.2,29.88,North,0,1.3,1.3,96,0.00,,,0.00,WUHU21623XXSP,2013-08-23 07:12:00,
2013-08-23 03:17:00,71.4,70.5,29.88,North,0,0.0,1.3,97,0.00,,,0.00,WUHU21623XXSP,2013-08-23 07:17:00,
2013-08-23 03:22:00,71.4,70.5,29.88,NNE,22,3.6,3.6,97,0.00,,,0.00,WUHU21623XXSP,2013-08-23 07:22:00,
2013-08-23 03:27:00,71.4,70.5,29.88,North,0,0.7,3.6,97,0.00,,,0.00,WUHU21623XXSP,2013-08-23 07:27:00,
2013-08-23 03:32:00,72.5,71.9,29.88,North,0,1.1,4.7,98,0.00,,,0.00,WUHU21623XXSP,2013-08-23 07:32:00,
2013-08-23 03:37:00,73.4,71.9,29.88,North,1,0.5,4.7,95,0.00,,,0.00,WUHU21623XXSP,2013-08-23 07:37:00,
2013-08-23 03:42:00,73.2,71.4,29.88,NW,315,0.2,3.1,94,0.00,,,0.00,WUHU21623XXSP,2013-08-23 07:42:00,
2013-08-23 03:47:00,73.0,70.9,29.88,North,5,0.6,2.2,93,0.00,,,0.00,WUHU21623XXSP,2013-08-23 07:47:00,
2013-08-23 03:52:00,72.7,70.3,29.88,NE,45,1.3,2.2,92,0.00,,,0.00,WUHU21623XXSP,2013-08-23 07:52:00,
2013-08-23 03:57:00,72.5,70.1,29.88,NNE,13,1.1,2.0,92,0.00,,,0.00,WUHU21623XXSP,2013-08-23 07:57:00,
2013-08-23 04:02:00,72.3,70.5,29.88,NE,45,3.6,4.5,94,0.00,,,0.00,WUHU21623XXSP,2013-08-23 08:02:00,
2013-08-23 04:07:00,72.1,70.3,29.88,NNE,20,0.9,4.5,94,0.00,,,0.00,WUHU21623XXSP,2013-08-23 08:07:00,
2013-08-23 04:12:00,72.1,70.3,29.88,North,8,0.7,3.1,94,0.00,,,0.00,WUHU21623XXSP,2013-08-23 08:12:00,
2013-08-23 04:17:00,72.1,70.3,29.88,NNE,30,1.5,4.7,94,0.00,,,0.00,WUHU21623XXSP,2013-08-23 08:17:00,
2013-08-23 04:21:00,72.1,70.0,29.88,NNE,13,1.4,4.7,93,0.00,,,0.00,WUHU21623XXSP,2013-08-23 08:21:00,
2013-08-23 04:27:00,72.0,69.6,29.88,NW,315,2.9,4.5,92,0.00,,,0.00,WUHU21623XXSP,2013-08-23 08:27:00,
2013-08-23 04:31:00,72.0,69.6,29.88,NE,45,6.0,6.0,92,0.00,,,0.00,WUHU21623XXSP,2013-08-23 08:31:00,
2013-08-23 04:37:00,72.0,69.3,29.89,North,2,2.5,9.6,91,0.00,,,0.00,WUHU21623XXSP,2013-08-23 08:37:00,
2013-08-23 04:42:00,71.8,69.1,29.89,NNE,22,3.1,9.6,91,0.00,,,0.00,WUHU21623XXSP,2013-08-23 08:42:00,
2013-08-23 04:47:00,71.8,69.1,29.89,North,0,1.8,3.1,91,0.00,,,0.00,WUHU21623XXSP,2013-08-23 08:47:00,
2013-08-23 04:52:00,71.6,68.6,29.89,North,0,2.2,4.5,90,0.00,,,0.00,WUHU21623XXSP,2013-08-23 08:52:00,
2013-08-23 04:57:00,71.8,68.8,29.89,NW,324,1.4,4.5,90,0.00,,,0.00,WUHU21623XXSP,2013-08-23 08:57:00,
2013-08-23 05:02:00,72.5,69.1,29.89,NNE,22,0.2,6.5,89,0.00,,,0.00,WUHU21623XXSP,2013-08-23 09:02:00,
2013-08-23 05:07:00,72.7,68.4,29.90,North,0,0.1,6.5,86,0.00,,,0.00,WUHU21623XXSP,2013-08-23 09:07:00,
2013-08-23 05:12:00,72.5,68.5,29.90,NE,45,1.8,4.3,87,0.00,,,0.00,WUHU21623XXSP,2013-08-23 09:12:00,
2013-08-23 05:17:00,72.0,67.7,29.90,ENE,67,0.0,4.3,86,0.00,,,0.00,WUHU21623XXSP,2013-08-23 09:17:00,
2013-08-23 05:22:00,71.8,67.5,29.90,NNE,22,0.0,0.0,86,0.00,,,0.00,WUHU21623XXSP,2013-08-23 09:22:00,
2013-08-23 05:27:00,71.4,67.4,29.90,NE,45,0.5,2.0,87,0.00,,,0.00,WUHU21623XXSP,2013-08-23 09:27:00,
2013-08-23 05:32:00,71.2,67.2,29.90,North,0,0.2,2.0,87,0.00,,,0.00,WUHU21623XXSP,2013-08-23 09:32:00,
2013-08-23 05:37:00,71.1,67.1,29.90,NW,315,0.2,2.7,87,0.00,,,0.00,WUHU21623XXSP,2013-08-23 09:37:00,
2013-08-23 05:42:00,70.9,66.9,29.90,North,0,0.0,2.7,87,0.00,,,0.00,WUHU21623XXSP,2013-08-23 09:42:00,
2013-08-23 05:47:00,70.7,66.7,29.90,NNE,22,1.1,3.1,87,0.00,,,0.00,WUHU21623XXSP,2013-08-23 09:47:00,
2013-08-23 05:52:00,70.7,66.7,29.91,NNW,337,0.0,3.1,87,0.00,,,0.00,WUHU21623XXSP,2013-08-23 09:52:00,
2013-08-23 05:57:00,70.5,66.8,29.91,NNW,337,0.0,1.6,88,0.00,,,0.00,WUHU21623XXSP,2013-08-23 09:57:00,
2013-08-23 06:02:00,70.3,66.6,29.91,NNW,337,0.0,0.0,88,0.00,,,0.00,WUHU21623XXSP,2013-08-23 10:02:00,
2013-08-23 06:07:00,70.2,66.5,29.92,NNW,337,0.0,1.6,88,0.00,,,0.00,WUHU21623XXSP,2013-08-23 10:07:00,
2013-08-23 06:12:00,70.2,66.5,29.92,NNW,337,0.5,4.7,88,0.00,,,0.00,WUHU21623XXSP,2013-08-23 10:12:00,
2013-08-23 06:17:00,70.0,66.3,29.92,NNE,22,0.4,4.7,88,0.00,,,0.00,WUHU21623XXSP,2013-08-23 10:17:00,
2013-08-23 06:22:00,69.8,66.1,29.92,NNE,22,0.2,3.1,88,0.00,,,0.00,WUHU21623XXSP,2013-08-23 10:22:00,
2013-08-23 06:27:00,69.8,66.1,29.92,NNE,19,1.4,3.8,88,0.00,,,0.00,WUHU21623XXSP,2013-08-23 10:27:00,
2013-08-23 06:32:00,69.8,66.1,29.92,North,0,2.0,3.8,88,0.00,,,0.00,WUHU21623XXSP,2013-08-23 10:32:00,
2013-08-23 06:37:00,69.6,65.9,29.93,NNE,22,2.9,8.1,88,0.00,,,0.00,WUHU21623XXSP,2013-08-23 10:37:00,
2013-08-23 06:42:00,69.8,66.1,29.93,NNE,22,1.6,8.1,88,0.00,,,0.00,WUHU21623XXSP,2013-08-23 10:42:00,
2013-08-23 06:47:00,69.8,65.8,29.93,NNE,22,1.6,3.4,87,0.00,,,0.00,WUHU21623XXSP,2013-08-23 10:47:00,
2013-08-23 06:52:00,70.2,66.2,29.93,NNW,337,2.9,2.9,87,0.00,,,0.00,WUHU21623XXSP,2013-08-23 10:52:00,
2013-08-23 06:57:00,71.2,66.6,29.94,North,0,2.0,3.6,85,0.00,,,0.00,WUHU21623XXSP,2013-08-23 10:57:00,
2013-08-23 07:02:00,71.6,66.6,29.94,NNE,22,0.7,3.6,84,0.00,,,0.00,WUHU21623XXSP,2013-08-23 11:02:00,
2013-08-23 07:07:00,71.1,65.5,29.94,NNE,27,1.4,4.0,82,0.00,,,0.00,WUHU21623XXSP,2013-08-23 11:07:00,
2013-08-23 07:12:00,70.9,65.6,29.94,NNE,22,2.5,4.0,83,0.00,,,0.00,WUHU21623XXSP,2013-08-23 11:12:00,
2013-08-23 07:17:00,70.7,65.4,29.94,NE,45,4.7,5.4,83,0.00,,,0.00,WUHU21623XXSP,2013-08-23 11:17:00,
2013-08-23 07:22:00,70.5,65.5,29.95,NNE,30,0.8,5.4,84,0.00,,,0.00,WUHU21623XXSP,2013-08-23 11:22:00,
2013-08-23 07:27:00,70.5,65.9,29.95,NNE,22,1.3,2.9,85,0.00,,,0.00,WUHU21623XXSP,2013-08-23 11:27:00,
2013-08-23 07:32:00,70.5,65.9,29.94,North,4,0.3,4.5,85,0.00,,,0.00,WUHU21623XXSP,2013-08-23 11:32:00,
2013-08-23 07:37:00,70.3,65.7,29.95,North,0,3.4,4.5,85,0.00,,,0.00,WUHU21623XXSP,2013-08-23 11:37:00,
2013-08-23 07:42:00,70.3,65.7,29.95,NE,36,0.7,3.4,85,0.00,,,0.00,WUHU21623XXSP,2013-08-23 11:42:00,
2013-08-23 07:47:00,70.3,66.0,29.95,NNE,22,0.0,2.5,86,0.00,,,0.00,WUHU21623XXSP,2013-08-23 11:47:00,
2013-08-23 07:52:00,70.5,66.2,29.96,NNE,22,0.4,2.0,86,0.00,,,0.00,WUHU21623XXSP,2013-08-23 11:52:00,
2013-08-23 07:57:00,70.5,66.2,29.96,NW,315,0.0,3.1,86,0.00,,,0.00,WUHU21623XXSP,2013-08-23 11:57:00,
2013-08-23 08:02:00,70.7,66.1,29.96,NNE,22,1.8,4.5,85,0.00,,,0.00,WUHU21623XXSP,2013-08-23 12:02:00,
2013-08-23 08:07:00,71.8,67.1,29.96,NNE,22,1.8,4.5,85,0.00,,,0.00,WUHU21623XXSP,2013-08-23 12:07:00,
2013-08-23 08:12:00,72.0,67.0,29.97,NE,45,2.5,7.4,84,0.00,,,0.00,WUHU21623XXSP,2013-08-23 12:12:00,
2013-08-23 08:17:00,71.8,66.1,29.97,NNE,22,0.8,7.4,82,0.00,,,0.00,WUHU21623XXSP,2013-08-23 12:17:00,
2013-08-23 08:22:00,71.6,65.9,29.97,NNW,337,3.4,5.1,82,0.00,,,0.00,WUHU21623XXSP,2013-08-23 12:22:00,
2013-08-23 08:27:00,71.4,65.7,29.97,NE,36,0.8,5.1,82,0.00,,,0.00,WUHU21623XXSP,2013-08-23 12:27:00,
2013-08-23 08:32:00,71.2,65.6,29.97,NNE,19,1.2,4.3,82,0.00,,,0.00,WUHU21623XXSP,2013-08-23 12:32:00,
2013-08-23 08:37:00,71.2,65.6,29.97,NNE,15,2.1,4.3,82,0.00,,,0.00,WUHU21623XXSP,2013-08-23 12:37:00,
2013-08-23 08:42:00,71.4,65.7,29.97,NE,51,0.9,2.9,82,0.00,,,0.00,WUHU21623XXSP,2013-08-23 12:42:00,
2013-08-23 08:47:00,71.4,65.4,29.96,ENE,67,0.3,5.1,81,0.00,,,0.00,WUHU21623XXSP,2013-08-23 12:47:00,
2013-08-23 08:52:00,71.8,65.8,29.97,North,0,1.6,5.1,81,0.00,,,0.00,WUHU21623XXSP,2013-08-23 12:52:00,
2013-08-23 08:57:00,71.8,65.8,29.96,North,0,2.7,4.5,81,0.00,,,0.00,WUHU21623XXSP,2013-08-23 12:57:00,
2013-08-23 09:02:00,72.0,65.6,29.96,North,9,2.5,4.0,80,0.00,,,0.00,WUHU21623XXSP,2013-08-23 13:02:00,
2013-08-23 09:07:00,72.1,65.7,29.96,ENE,67,0.9,4.7,80,0.00,,,0.00,WUHU21623XXSP,2013-08-23 13:07:00,
2013-08-23 09:11:00,72.5,65.8,29.96,North,2,1.5,4.9,79,0.00,,,0.00,WUHU21623XXSP,2013-08-23 13:11:00,
2013-08-23 09:16:00,72.7,65.6,29.96,NNE,16,0.8,4.9,78,0.00,,,0.00,WUHU21623XXSP,2013-08-23 13:16:00,
2013-08-23 09:22:00,72.9,65.8,29.96,North,350,2.4,3.6,78,0.00,,,0.00,WUHU21623XXSP,2013-08-23 13:22:00,
2013-08-23 09:27:00,73.0,65.9,29.96,North,353,2.0,6.3,78,0.00,,,0.00,WUHU21623XXSP,2013-08-23 13:27:00,
2013-08-23 09:32:00,73.2,65.4,29.96,North,351,3.0,9.8,76,0.00,,,0.00,WUHU21623XXSP,2013-08-23 13:32:00,
2013-08-23 09:37:00,73.2,65.0,29.97,NE,36,1.2,9.8,75,0.00,,,0.00,WUHU21623XXSP,2013-08-23 13:37:00,
2013-08-23 09:42:00,73.4,64.8,29.97,NNE,30,1.3,4.0,74,0.00,,,0.00,WUHU21623XXSP,2013-08-23 13:42:00,
2013-08-23 09:47:00,73.4,64.8,29.97,NNE,26,1.7,4.0,74,0.00,,,0.00,WUHU21623XXSP,2013-08-23 13:47:00,
2013-08-23 09:52:00,73.6,65.0,29.97,NNE,16,0.4,4.0,74,0.00,,,0.00,WUHU21623XXSP,2013-08-23 13:52:00,
2013-08-23 09:57:00,73.6,65.0,29.97,North,0,1.1,3.1,74,0.00,,,0.00,WUHU21623XXSP,2013-08-23 13:57:00,
2013-08-23 10:02:00,73.4,64.5,29.97,NNE,15,1.8,3.6,73,0.00,,,0.00,WUHU21623XXSP,2013-08-23 14:02:00,
2013-08-23 10:07:00,73.6,64.7,29.97,NE,45,1.8,3.6,73,0.00,,,0.00,WUHU21623XXSP,2013-08-23 14:07:00,
2013-08-23 10:12:00,73.6,64.7,29.97,NNE,12,1.0,2.9,73,0.00,,,0.00,WUHU21623XXSP,2013-08-23 14:12:00,
2013-08-23 10:17:00,73.4,64.5,29.98,NNE,13,0.4,12.3,73,0.00,,,0.00,WUHU21623XXSP,2013-08-23 14:17:00,
2013-08-23 10:22:00,73.6,64.3,29.98,NNE,26,0.9,12.3,72,0.00,,,0.00,WUHU21623XXSP,2013-08-23 14:22:00,
2013-08-23 10:27:00,74.5,64.7,29.97,NNW,337,0.1,2.5,71,0.00,,,0.00,WUHU21623XXSP,2013-08-23 14:27:00,
2013-08-23 10:32:00,75.0,64.8,29.97,NE,39,0.9,2.0,70,0.00,,,0.00,WUHU21623XXSP,2013-08-23 14:32:00,
2013-08-23 10:37:00,74.8,64.6,29.97,NE,45,5.4,5.4,70,0.00,,,0.00,WUHU21623XXSP,2013-08-23 14:37:00,
2013-08-23 10:42:00,75.0,64.4,29.97,NNW,327,0.5,5.4,69,0.00,,,0.00,WUHU21623XXSP,2013-08-23 14:42:00,
2013-08-23 10:47:00,75.4,64.4,29.97,NE,43,1.0,4.0,68,0.00,,,0.00,WUHU21623XXSP,2013-08-23 14:47:00,
2013-08-23 10:52:00,75.4,64.4,29.97,NE,47,0.8,4.5,68,0.00,,,0.00,WUHU21623XXSP,2013-08-23 14:52:00,
2013-08-23 10:57:00,75.9,64.5,29.97,NE,45,0.1,4.5,67,0.00,,,0.00,WUHU21623XXSP,2013-08-23 14:57:00,
2013-08-23 11:02:00,76.5,64.2,29.98,NNE,29,2.5,6.5,65,0.00,,,0.00,WUHU21623XXSP,2013-08-23 15:02:00,
2013-08-23 11:07:00,77.2,64.4,29.97,NNW,333,2.5,6.5,64,0.00,,,0.00,WUHU21623XXSP,2013-08-23 15:07:00,
2013-08-23 11:12:00,77.4,64.1,29.97,West,270,3.6,4.5,63,0.00,,,0.00,WUHU21623XXSP,2013-08-23 15:12:00,
2013-08-23 11:17:00,77.5,64.2,29.98,NE,45,2.0,4.5,63,0.00,,,0.00,WUHU21623XXSP,2013-08-23 15:17:00,
2013-08-23 11:22:00,77.9,64.6,29.98,NE,45,0.4,4.7,63,0.00,,,0.00,WUHU21623XXSP,2013-08-23 15:22:00,
2013-08-23 11:27:00,78.1,64.3,29.98,NE,45,3.1,4.7,62,0.00,,,0.00,WUHU21623XXSP,2013-08-23 15:27:00,
2013-08-23 11:32:00,78.6,63.9,29.98,NE,40,2.4,6.5,60,0.00,,,0.00,WUHU21623XXSP,2013-08-23 15:32:00,
2013-08-23 11:37:00,78.4,61.7,29.97,NNE,23,2.7,7.4,56,0.00,,,0.00,WUHU21623XXSP,2013-08-23 15:37:00,
2013-08-23 11:42:00,78.8,62.6,29.98,North,351,2.1,7.4,57,0.00,,,0.00,WUHU21623XXSP,2013-08-23 15:42:00,
2013-08-23 11:47:00,79.0,62.3,29.97,NNE,22,2.7,8.3,56,0.00,,,0.00,WUHU21623XXSP,2013-08-23 15:47:00,
2013-08-23 11:52:00,78.8,62.1,29.97,North,3,3.7,8.3,56,0.00,,,0.00,WUHU21623XXSP,2013-08-23 15:52:00,
2013-08-23 11:58:00,78.3,61.1,29.97,North,3,4.7,7.2,55,0.00,,,0.00,WUHU21623XXSP,2013-08-23 15:58:00,
2013-08-23 12:03:00,78.1,60.9,29.97,North,9,1.2,6.5,55,0.00,,,0.00,WUHU21623XXSP,2013-08-23 16:03:00,
2013-08-23 12:08:00,78.4,62.2,29.97,ENE,75,0.6,4.3,57,0.00,,,0.00,WUHU21623XXSP,2013-08-23 16:08:00,
2013-08-23 12:13:00,78.6,62.4,29.98,NE,45,0.9,3.6,57,0.00,,,0.00,WUHU21623XXSP,2013-08-23 16:13:00,
2013-08-23 12:18:00,79.3,62.5,29.98,NNE,22,3.8,4.9,56,0.00,,,0.00,WUHU21623XXSP,2013-08-23 16:18:00,
2013-08-23 12:23:00,80.1,63.3,29.97,NE,45,2.2,4.9,56,0.00,,,0.00,WUHU21623XXSP,2013-08-23 16:23:00,
2013-08-23 12:28:00,80.1,62.8,29.97,NNE,26,2.1,9.4,55,0.00,,,0.00,WUHU21623XXSP,2013-08-23 16:28:00,
2013-08-23 12:33:00,80.1,62.2,29.97,NNE,16,1.8,9.4,54,0.00,,,0.00,WUHU21623XXSP,2013-08-23 16:33:00,
2013-08-23 12:38:00,79.9,62.1,29.97,NE,45,2.2,7.4,54,0.00,,,0.00,WUHU21623XXSP,2013-08-23 16:38:00,
2013-08-23 12:43:00,79.5,60.6,29.97,NNE,31,2.7,7.4,52,0.00,,,0.00,WUHU21623XXSP,2013-08-23 16:43:00,
2013-08-23 12:48:00,79.7,60.8,29.97,NE,56,0.7,5.8,52,0.00,,,0.00,WUHU21623XXSP,2013-08-23 16:48:00,
2013-08-23 12:53:00,80.2,61.2,29.97,NNE,22,4.0,5.8,52,0.00,,,0.00,WUHU21623XXSP,2013-08-23 16:53:00,
2013-08-23 12:58:00,80.1,60.0,29.98,WSW,247,4.0,7.2,50,0.00,,,0.00,WUHU21623XXSP,2013-08-23 16:58:00,
2013-08-23 13:03:00,79.9,59.8,29.98,NNE,16,1.9,7.2,50,0.00,,,0.00,WUHU21623XXSP,2013-08-23 17:03:00,
2013-08-23 13:08:00,79.5,59.5,29.98,NNE,30,1.9,6.5,50,0.00,,,0.00,WUHU21623XXSP,2013-08-23 17:08:00,
2013-08-23 13:13:00,79.9,60.4,29.98,NNE,22,1.9,6.5,51,0.00,,,0.00,WUHU21623XXSP,2013-08-23 17:13:00,
2013-08-23 13:18:00,80.2,60.7,29.98,NE,46,1.4,4.3,51,0.00,,,0.00,WUHU21623XXSP,2013-08-23 17:18:00,
2013-08-23 13:23:00,80.8,60.7,29.98,NNE,18,1.4,5.1,50,0.00,,,0.00,WUHU21623XXSP,2013-08-23 17:23:00,
2013-08-23 13:28:00,80.8,60.7,29.98,NE,45,1.6,5.1,50,0.00,,,0.00,WUHU21623XXSP,2013-08-23 17:28:00,
2013-08-23 13:33:00,80.8,60.7,29.98,NE,45,4.5,11.4,50,0.00,,,0.00,WUHU21623XXSP,2013-08-23 17:33:00,
2013-08-23 13:38:00,80.6,60.5,29.98,NNE,28,2.8,11.4,50,0.00,,,0.00,WUHU21623XXSP,2013-08-23 17:38:00,
2013-08-23 13:43:00,80.6,61.0,29.98,ENE,57,0.2,5.4,51,0.00,,,0.00,WUHU21623XXSP,2013-08-23 17:43:00,
2013-08-23 13:48:00,80.8,61.2,29.98,NE,52,0.7,4.0,51,0.00,,,0.00,WUHU21623XXSP,2013-08-23 17:48:00,
2013-08-23 13:53:00,81.0,60.8,29.99,NW,315,3.1,6.0,50,0.00,,,0.00,WUHU21623XXSP,2013-08-23 17:53:00,
2013-08-23 13:58:00,81.5,60.1,29.99,NNE,22,2.5,11.2,48,0.00,,,0.00,WUHU21623XXSP,2013-08-23 17:58:00,
2013-08-23 14:04:00,81.1,59.1,29.99,NNE,22,4.0,4.5,47,0.00,,,0.00,WUHU21623XXSP,2013-08-23 18:04:00,
2013-08-23 14:09:00,81.0,59.1,29.99,NE,45,3.8,4.7,47,0.00,,,0.00,WUHU21623XXSP,2013-08-23 18:09:00,
2013-08-23 14:14:00,80.8,58.9,29.99,NNE,22,8.3,8.3,47,0.00,,,0.00,WUHU21623XXSP,2013-08-23 18:14:00,
2013-08-23 14:19:00,80.2,57.7,29.99,WNW,292,2.9,8.3,46,0.00,,,0.00,WUHU21623XXSP,2013-08-23 18:19:00,
2013-08-23 14:24:00,79.9,57.4,29.99,NE,37,1.4,7.6,46,0.00,,,0.00,WUHU21623XXSP,2013-08-23 18:24:00,
2013-08-23 14:29:00,80.2,58.3,29.99,NNE,21,1.5,7.6,47,0.00,,,0.00,WUHU21623XXSP,2013-08-23 18:29:00,
2013-08-23 14:34:00,80.8,59.5,29.99,NNE,33,1.3,6.0,48,0.00,,,0.00,WUHU21623XXSP,2013-08-23 18:34:00,
2013-08-23 14:39:00,80.6,58.7,29.99,NNE,18,2.3,6.0,47,0.00,,,0.00,WUHU21623XXSP,2013-08-23 18:39:00,
2013-08-23 14:44:00,80.8,59.5,29.99,NNE,25,0.8,4.7,48,0.00,,,0.00,WUHU21623XXSP,2013-08-23 18:44:00,
2013-08-23 14:49:00,81.0,59.7,29.99,North,1,3.2,6.9,48,0.00,,,0.00,WUHU21623XXSP,2013-08-23 18:49:00,
2013-08-23 14:54:00,81.0,59.7,29.98,NNE,27,2.7,6.9,48,0.00,,,0.00,WUHU21623XXSP,2013-08-23 18:54:00,
2013-08-23 14:59:00,80.6,58.7,29.99,NE,45,1.8,5.8,47,0.00,,,0.00,WUHU21623XXSP,2013-08-23 18:59:00,
2013-08-23 15:04:00,80.2,58.9,29.99,ENE,67,1.3,6.7,48,0.00,,,0.00,WUHU21623XXSP,2013-08-23 19:04:00,
2013-08-23 15:09:00,80.2,59.5,29.99,NNW,337,2.5,6.7,49,0.00,,,0.00,WUHU21623XXSP,2013-08-23 19:09:00,
2013-08-23 15:14:00,80.2,59.5,29.99,NNW,337,1.5,5.1,49,0.00,,,0.00,WUHU21623XXSP,2013-08-23 19:14:00,
2013-08-23 15:19:00,80.2,59.5,29.99,NE,45,2.2,5.1,49,0.00,,,0.00,WUHU21623XXSP,2013-08-23 19:19:00,
2013-08-23 15:24:00,80.6,59.3,29.99,North,6,1.9,5.4,48,0.00,,,0.00,WUHU21623XXSP,2013-08-23 19:24:00,
2013-08-23 15:29:00,80.1,58.8,29.99,NNE,21,0.4,5.4,48,0.00,,,0.00,WUHU21623XXSP,2013-08-23 19:29:00,
2013-08-23 15:34:00,79.7,59.1,29.99,ENE,67,0.4,5.1,49,0.00,,,0.00,WUHU21623XXSP,2013-08-23 19:34:00,
2013-08-23 15:39:00,79.5,59.5,29.99,NNE,22,2.9,3.8,50,0.00,,,0.00,WUHU21623XXSP,2013-08-23 19:39:00,
2013-08-23 15:44:00,79.5,59.5,29.98,NE,45,0.5,4.0,50,0.00,,,0.00,WUHU21623XXSP,2013-08-23 19:44:00,
2013-08-23 15:49:00,79.3,59.3,29.99,NE,46,1.0,4.0,50,0.00,,,0.00,WUHU21623XXSP,2013-08-23 19:49:00,
2013-08-23 15:54:00,79.2,59.2,29.98,NE,40,0.7,4.0,50,0.00,,,0.00,WUHU21623XXSP,2013-08-23 19:54:00,
2013-08-23 15:59:00,80.1,60.6,29.99,NNE,22,4.5,4.5,51,0.00,,,0.00,WUHU21623XXSP,2013-08-23 19:59:00,
2013-08-23 16:04:00,80.2,59.5,29.98,NNE,22,3.6,4.7,49,0.00,,,0.00,WUHU21623XXSP,2013-08-23 20:04:00,
2013-08-23 16:10:00,79.7,59.1,29.99,NE,34,1.5,3.6,49,0.00,,,0.00,WUHU21623XXSP,2013-08-23 20:10:00,
2013-08-23 16:15:00,79.2,59.2,29.99,NNE,13,1.7,3.8,50,0.00,,,0.00,WUHU21623XXSP,2013-08-23 20:15:00,
2013-08-23 16:20:00,79.0,59.0,29.99,NE,45,0.2,3.8,50,0.00,,,0.00,WUHU21623XXSP,2013-08-23 20:20:00,
2013-08-23 16:25:00,79.0,59.6,29.99,NE,45,2.9,2.9,51,0.00,,,0.00,WUHU21623XXSP,2013-08-23 20:25:00,
2013-08-23 16:30:00,78.4,59.0,29.99,NE,45,0.9,3.1,51,0.00,,,0.00,WUHU21623XXSP,2013-08-23 20:30:00,
2013-08-23 16:35:00,78.4,59.0,29.99,NNE,25,1.2,4.3,51,0.00,,,0.00,WUHU21623XXSP,2013-08-23 20:35:00,
2013-08-23 16:40:00,78.4,59.0,29.99,NNE,24,1.8,4.3,51,0.00,,,0.00,WUHU21623XXSP,2013-08-23 20:40:00,
2013-08-23 16:45:00,78.4,59.0,29.99,NE,49,1.1,5.1,51,0.00,,,0.00,WUHU21623XXSP,2013-08-23 20:45:00,
2013-08-23 16:50:00,79.0,59.6,29.99,NNE,22,2.2,5.1,51,0.00,,,0.00,WUHU21623XXSP,2013-08-23 20:50:00,
2013-08-23 16:55:00,79.7,60.2,29.99,NE,45,4.0,4.0,51,0.00,,,0.00,WUHU21623XXSP,2013-08-23 20:55:00,
2013-08-23 17:00:00,79.5,59.5,29.99,NE,45,2.0,4.0,50,0.00,,,0.00,WUHU21623XXSP,2013-08-23 21:00:00,
2013-08-23 17:05:00,79.2,59.2,29.99,NNE,25,1.1,4.7,50,0.00,,,0.00,WUHU21623XXSP,2013-08-23 21:05:00,
2013-08-23 17:10:00,79.0,59.6,29.99,NNW,337,0.3,4.7,51,0.00,,,0.00,WUHU21623XXSP,2013-08-23 21:10:00,
2013-08-23 17:15:00,78.4,59.0,29.99,NNW,337,0.2,1.3,51,0.00,,,0.00,WUHU21623XXSP,2013-08-23 21:15:00,
2013-08-23 17:20:00,78.3,58.9,29.99,NNW,337,0.1,1.3,51,0.00,,,0.00,WUHU21623XXSP,2013-08-23 21:20:00,
2013-08-23 17:25:00,78.3,59.5,29.99,NNE,28,0.9,3.8,52,0.00,,,0.00,WUHU21623XXSP,2013-08-23 21:25:00,
2013-08-23 17:30:00,77.9,59.1,29.99,NNW,337,0.0,3.8,52,0.00,,,0.00,WUHU21623XXSP,2013-08-23 21:30:00,
2013-08-23 17:35:00,77.9,59.6,30.00,NE,38,0.4,1.3,53,0.00,,,0.00,WUHU21623XXSP,2013-08-23 21:35:00,
2013-08-23 17:40:00,77.7,60.0,30.00,NNE,22,0.2,2.2,54,0.00,,,0.00,WUHU21623XXSP,2013-08-23 21:40:00,
2013-08-23 17:45:00,77.5,59.8,30.00,NNE,22,0.7,2.2,54,0.00,,,0.00,WUHU21623XXSP,2013-08-23 21:45:00,
2013-08-23 17:50:00,77.5,59.8,30.00,ENE,67,1.8,1.8,54,0.00,,,0.00,WUHU21623XXSP,2013-08-23 21:50:00,
2013-08-23 17:55:00,77.4,59.7,30.00,NNE,20,1.0,2.9,54,0.00,,,0.00,WUHU21623XXSP,2013-08-23 21:55:00,
2013-08-23 18:00:00,77.4,59.7,29.99,ENE,60,0.5,6.0,54,0.00,,,0.00,WUHU21623XXSP,2013-08-23 22:00:00,
2013-08-23 18:05:00,78.3,60.6,29.99,NW,315,1.0,6.0,54,0.00,,,0.00,WUHU21623XXSP,2013-08-23 22:05:00,
2013-08-23 18:10:00,78.3,60.0,29.99,NNW,337,0.0,4.5,53,0.00,,,0.00,WUHU21623XXSP,2013-08-23 22:10:00,
2013-08-23 18:16:00,77.9,59.6,30.00,NE,45,0.5,2.0,53,0.00,,,0.00,WUHU21623XXSP,2013-08-23 22:16:00,
2013-08-23 18:21:00,77.5,60.3,30.00,NNE,29,1.0,5.4,55,0.00,,,0.00,WUHU21623XXSP,2013-08-23 22:21:00,
2013-08-23 18:26:00,77.2,60.1,30.00,North,0,0.1,5.4,55,0.00,,,0.00,WUHU21623XXSP,2013-08-23 22:26:00,
2013-08-23 18:31:00,77.0,60.4,30.00,North,0,0.0,0.9,56,0.00,,,0.00,WUHU21623XXSP,2013-08-23 22:31:00,
2013-08-23 18:36:00,76.8,60.2,30.00,NNE,22,0.0,1.8,56,0.00,,,0.00,WUHU21623XXSP,2013-08-23 22:36:00,
2013-08-23 18:41:00,76.6,60.0,30.00,ENE,67,0.0,1.8,56,0.00,,,0.00,WUHU21623XXSP,2013-08-23 22:41:00,
2013-08-23 18:46:00,76.6,60.0,30.00,NNE,22,1.3,1.3,56,0.00,,,0.00,WUHU21623XXSP,2013-08-23 22:46:00,
2013-08-23 18:51:00,76.3,59.7,30.01,NE,53,1.0,2.0,56,0.00,,,0.00,WUHU21623XXSP,2013-08-23 22:51:00,
2013-08-23 18:56:00,76.1,59.5,30.01,NE,45,0.0,2.0,56,0.00,,,0.00,WUHU21623XXSP,2013-08-23 22:56:00,
2013-08-23 19:01:00,75.9,59.9,30.01,NW,315,0.0,2.2,57,0.00,,,0.00,WUHU21623XXSP,2013-08-23 23:01:00,
2013-08-23 19:06:00,77.0,60.4,30.02,NNE,22,0.0,2.2,56,0.00,,,0.00,WUHU21623XXSP,2013-08-23 23:06:00,
2013-08-23 19:11:00,77.2,60.6,30.02,NE,45,0.0,2.0,56,0.00,,,0.00,WUHU21623XXSP,2013-08-23 23:11:00,
2013-08-23 19:16:00,76.5,59.4,30.02,NE,45,0.0,2.0,55,0.00,,,0.00,WUHU21623XXSP,2013-08-23 23:16:00,
2013-08-23 19:21:00,76.1,59.5,30.02,NE,45,0.0,0.9,56,0.00,,,0.00,WUHU21623XXSP,2013-08-23 23:21:00,
2013-08-23 19:26:00,75.6,59.6,30.02,NE,45,0.0,0.0,57,0.00,,,0.00,WUHU21623XXSP,2013-08-23 23:26:00,
2013-08-23 19:31:00,75.4,59.9,30.02,NNW,337,0.0,0.9,58,0.00,,,0.00,WUHU21623XXSP,2013-08-23 23:31:00,
2013-08-23 19:36:00,74.7,59.2,30.03,North,0,0.0,0.9,58,0.00,,,0.00,WUHU21623XXSP,2013-08-23 23:36:00,
2013-08-23 19:41:00,74.3,59.3,30.02,North,0,0.0,0.0,59,0.00,,,0.00,WUHU21623XXSP,2013-08-23 23:41:00,
2013-08-23 19:46:00,73.8,59.3,30.03,North,0,0.0,0.0,60,0.00,,,0.00,WUHU21623XXSP,2013-08-23 23:46:00,
2013-08-23 19:51:00,73.6,59.1,30.03,North,0,0.0,1.3,60,0.00,,,0.00,WUHU21623XXSP,2013-08-23 23:51:00,
2013-08-23 19:56:00,73.0,59.0,30.03,North,0,0.0,8.5,61,0.00,,,0.00,WUHU21623XXSP,2013-08-23 23:56:00,
2013-08-23 20:01:00,72.9,59.0,30.03,North,0,0.0,8.5,61,0.00,,,0.00,WUHU21623XXSP,2013-08-24 00:01:00,
2013-08-23 20:06:00,72.5,58.6,30.03,North,0,0.4,1.8,61,0.00,,,0.00,WUHU21623XXSP,2013-08-24 00:06:00,
2013-08-23 20:11:00,72.1,58.7,30.05,North,0,0.0,1.8,62,0.00,,,0.00,WUHU21623XXSP,2013-08-24 00:11:00,
2013-08-23 20:16:00,72.0,58.6,30.05,North,0,0.0,1.6,62,0.00,,,0.00,WUHU21623XXSP,2013-08-24 00:16:00,
2013-08-23 20:22:00,71.8,58.8,30.05,North,0,0.0,0.0,63,0.00,,,0.00,WUHU21623XXSP,2013-08-24 00:22:00,
2013-08-23 20:27:00,72.9,60.3,30.05,North,0,0.0,0.0,64,0.00,,,0.00,WUHU21623XXSP,2013-08-24 00:27:00,
2013-08-23 20:32:00,72.9,59.9,30.05,North,5,0.5,1.6,63,0.00,,,0.00,WUHU21623XXSP,2013-08-24 00:32:00,
2013-08-23 20:37:00,72.3,59.3,30.05,North,0,0.4,1.6,63,0.00,,,0.00,WUHU21623XXSP,2013-08-24 00:37:00,
2013-08-23 20:42:00,72.0,59.0,30.05,North,0,0.0,2.0,63,0.00,,,0.00,WUHU21623XXSP,2013-08-24 00:42:00,
2013-08-23 20:47:00,71.6,58.6,30.05,NNE,22,0.9,4.5,63,0.00,,,0.00,WUHU21623XXSP,2013-08-24 00:47:00,
2013-08-23 20:52:00,71.2,58.2,30.05,North,0,0.0,4.5,63,0.00,,,0.00,WUHU21623XXSP,2013-08-24 00:52:00,
2013-08-23 20:57:00,70.9,58.0,30.05,North,0,0.0,0.9,63,0.00,,,0.00,WUHU21623XXSP,2013-08-24 00:57:00,
2013-08-23 21:02:00,70.7,58.2,30.06,North,0,0.1,3.6,64,0.00,,,0.00,WUHU21623XXSP,2013-08-24 01:02:00,
2013-08-23 21:07:00,70.5,58.0,30.06,NE,45,0.9,3.6,64,0.00,,,0.00,WUHU21623XXSP,2013-08-24 01:07:00,
2013-08-23 21:12:00,70.5,58.9,30.06,NNE,25,0.4,2.5,66,0.00,,,0.00,WUHU21623XXSP,2013-08-24 01:12:00,
2013-08-23 21:17:00,70.2,58.6,30.06,NNW,337,1.6,6.7,66,0.00,,,0.00,WUHU21623XXSP,2013-08-24 01:17:00,
2013-08-23 21:22:00,70.2,58.6,30.06,North,354,0.9,6.7,66,0.00,,,0.00,WUHU21623XXSP,2013-08-24 01:22:00,
2013-08-23 21:27:00,70.0,58.4,30.06,North,0,6.0,6.0,66,0.00,,,0.00,WUHU21623XXSP,2013-08-24 01:27:00,
2013-08-23 21:32:00,70.2,59.4,30.06,NNE,22,0.9,6.0,68,0.00,,,0.00,WUHU21623XXSP,2013-08-24 01:32:00,
2013-08-23 21:37:00,71.1,59.9,30.06,North,0,0.6,4.0,67,0.00,,,0.00,WUHU21623XXSP,2013-08-24 01:37:00,
2013-08-23 21:42:00,70.7,59.1,30.07,North,0,0.0,3.8,66,0.00,,,0.00,WUHU21623XXSP,2013-08-24 01:42:00,
2013-08-23 21:47:00,70.5,58.9,30.07,NNE,22,0.4,3.8,66,0.00,,,0.00,WUHU21623XXSP,2013-08-24 01:47:00,
2013-08-23 21:52:00,70.2,58.6,30.07,North,357,0.7,3.4,66,0.00,,,0.00,WUHU21623XXSP,2013-08-24 01:52:00,
2013-08-23 21:57:00,69.8,58.2,30.08,NE,45,0.9,9.8,66,0.00,,,0.00,WUHU21623XXSP,2013-08-24 01:57:00,
2013-08-23 22:02:00,69.4,57.8,30.08,North,0,0.2,9.8,66,0.00,,,0.00,WUHU21623XXSP,2013-08-24 02:02:00,
2013-08-23 22:07:00,69.3,57.7,30.08,North,0,2.9,5.1,66,0.00,,,0.00,WUHU21623XXSP,2013-08-24 02:07:00,
2013-08-23 22:12:00,69.1,57.5,30.08,North,357,1.1,5.1,66,0.00,,,0.00,WUHU21623XXSP,2013-08-24 02:12:00,
2013-08-23 22:17:00,68.9,57.3,30.08,NNE,22,0.9,3.4,66,0.00,,,0.00,WUHU21623XXSP,2013-08-24 02:17:00,
2013-08-23 22:22:00,68.7,56.7,30.08,NNW,347,0.8,3.8,65,0.00,,,0.00,WUHU21623XXSP,2013-08-24 02:22:00,
2013-08-23 22:28:00,68.7,57.2,30.08,NNE,22,9.8,9.8,66,0.00,,,0.00,WUHU21623XXSP,2013-08-24 02:28:00,
2013-08-23 22:33:00,68.5,57.0,30.08,NNE,22,0.2,9.8,66,0.00,,,0.00,WUHU21623XXSP,2013-08-24 02:33:00,
2013-08-23 22:38:00,68.5,57.0,30.08,NNE,22,0.0,1.6,66,0.00,,,0.00,WUHU21623XXSP,2013-08-24 02:38:00,
2013-08-23 22:43:00,68.5,57.0,30.08,NNE,17,0.5,1.8,66,0.00,,,0.00,WUHU21623XXSP,2013-08-24 02:43:00,
2013-08-23 22:48:00,68.4,56.9,30.08,NNE,22,1.2,5.1,66,0.00,,,0.00,WUHU21623XXSP,2013-08-24 02:48:00,
2013-08-23 22:53:00,68.7,57.6,30.08,North,0,2.0,5.1,67,0.00,,,0.00,WUHU21623XXSP,2013-08-24 02:53:00,
2013-08-23 22:58:00,69.8,57.8,30.09,NNE,22,0.7,3.6,65,0.00,,,0.00,WUHU21623XXSP,2013-08-24 02:58:00,
2013-08-23 23:03:00,69.8,57.3,30.09,NE,45,1.6,3.6,64,0.00,,,0.00,WUHU21623XXSP,2013-08-24 03:03:00,
2013-08-23 23:08:00,69.3,56.9,30.09,NNE,22,2.2,2.7,64,0.00,,,0.00,WUHU21623XXSP,2013-08-24 03:08:00,
2013-08-23 23:13:00,68.9,56.5,30.09,NNE,22,0.8,2.5,64,0.00,,,0.00,WUHU21623XXSP,2013-08-24 03:13:00,
2013-08-23 23:18:00,68.7,57.2,30.10,NNE,22,1.3,2.5,66,0.00,,,0.00,WUHU21623XXSP,2013-08-24 03:18:00,
2013-08-23 23:23:00,68.5,57.4,30.10,NNE,22,2.0,2.7,67,0.00,,,0.00,WUHU21623XXSP,2013-08-24 03:23:00,
2013-08-23 23:28:00,68.4,57.3,30.10,NNE,22,2.2,5.1,67,0.00,,,0.00,WUHU21623XXSP,2013-08-24 03:28:00,
2013-08-23 23:33:00,68.4,57.3,30.10,NNE,22,1.3,5.1,67,0.00,,,0.00,WUHU21623XXSP,2013-08-24 03:33:00,
2013-08-23 23:38:00,68.4,57.7,30.10,NNE,22,0.5,2.7,68,0.00,,,0.00,WUHU21623XXSP,2013-08-24 03:38:00,
2013-08-23 23:43:00,68.4,57.7,30.10,NNE,22,0.4,2.7,68,0.00,,,0.00,WUHU21623XXSP,2013-08-24 03:43:00,
2013-08-23 23:48:00,68.2,57.5,30.10,NW,325,0.8,2.9,68,0.00,,,0.00,WUHU21623XXSP,2013-08-24 03:48:00,
2013-08-23 23:53:00,68.2,57.5,30.10,NNW,337,0.1,6.5,68,0.00,,,0.00,WUHU21623XXSP,2013-08-24 03:53:00,
2013-08-23 23:58:00,68.7,58.4,30.10,NNW,337,0.1,6.5,69,0.00,,,0.00,WUHU21623XXSP,2013-08-24 03:58:00,